sensor_id;sensor_type;location;lat;lon;timestamp;pressure;altitude;pressure_sealevel;temperature;humidity
84592;BME280;74826;50.812;16.038;2024-01-15T00:00:13;94756.25;;;0.69;68.79
84592;BME280;74826;50.812;16.038;2024-01-15T00:02:39;94785.91;;;0.85;68.99
84592;BME280;74826;50.812;16.038;2024-01-15T00:05:04;94767.88;;;0.80;68.77
84592;BME280;74826;50.812;16.038;2024-01-15T00:07:30;94769.72;;;0.79;69.59
84592;BME280;74826;50.812;16.038;2024-01-15T00:09:55;94773.97;;;0.84;69.55
84592;BME280;74826;50.812;16.038;2024-01-15T00:12:21;94756.56;;;0.59;71.00
84592;BME280;74826;50.812;16.038;2024-01-15T00:14:46;94739.91;;;0.51;70.96
84592;BME280;74826;50.812;16.038;2024-01-15T00:17:11;94740.78;;;0.30;71.89
84592;BME280;74826;50.812;16.038;2024-01-15T00:19:38;94739.69;;;0.14;72.79
84592;BME280;74826;50.812;16.038;2024-01-15T00:22:03;94741.81;;;0.20;73.83
84592;BME280;74826;50.812;16.038;2024-01-15T00:24:29;94744.56;;;0.24;74.15
84592;BME280;74826;50.812;16.038;2024-01-15T00:26:54;94732.78;;;0.00;74.44
84592;BME280;74826;50.812;16.038;2024-01-15T00:29:20;94725.63;;;0.06;75.09
84592;BME280;74826;50.812;16.038;2024-01-15T00:31:46;94720.69;;;-0.13;75.32
84592;BME280;74826;50.812;16.038;2024-01-15T00:34:11;94702.50;;;-0.30;76.04
84592;BME280;74826;50.812;16.038;2024-01-15T00:36:37;94696.34;;;-0.42;76.10
84592;BME280;74826;50.812;16.038;2024-01-15T00:39:02;94687.03;;;-0.52;76.17
84592;BME280;74826;50.812;16.038;2024-01-15T00:41:30;94687.19;;;-0.48;76.82
84592;BME280;74826;50.812;16.038;2024-01-15T00:43:56;94656.81;;;-0.65;75.67
84592;BME280;74826;50.812;16.038;2024-01-15T00:46:21;94682.78;;;-0.48;76.54
84592;BME280;74826;50.812;16.038;2024-01-15T00:48:47;94686.25;;;-0.52;77.09
84592;BME280;74826;50.812;16.038;2024-01-15T00:51:12;94647.72;;;-0.54;76.71
84592;BME280;74826;50.812;16.038;2024-01-15T00:53:38;94669.97;;;-0.53;77.40
84592;BME280;74826;50.812;16.038;2024-01-15T00:56:03;94675.41;;;-0.54;77.09
84592;BME280;74826;50.812;16.038;2024-01-15T00:58:29;94641.69;;;-0.71;76.85
84592;BME280;74826;50.812;16.038;2024-01-15T01:00:54;94671.44;;;-0.60;76.62
84592;BME280;74826;50.812;16.038;2024-01-15T01:03:20;94656.09;;;-0.57;76.01
84592;BME280;74826;50.812;16.038;2024-01-15T01:05:48;94658.06;;;-0.54;75.88
84592;BME280;74826;50.812;16.038;2024-01-15T01:08:15;94656.25;;;-0.45;74.38
84592;BME280;74826;50.812;16.038;2024-01-15T01:10:40;94647.75;;;-0.37;74.30
84592;BME280;74826;50.812;16.038;2024-01-15T01:13:08;94639.88;;;-0.32;73.85
84592;BME280;74826;50.812;16.038;2024-01-15T01:15:33;94620.94;;;-0.41;74.00
84592;BME280;74826;50.812;16.038;2024-01-15T01:17:59;94648.16;;;0.05;72.80
84592;BME280;74826;50.812;16.038;2024-01-15T01:20:24;94644.41;;;0.19;72.34
84592;BME280;74826;50.812;16.038;2024-01-15T01:22:50;94661.81;;;0.44;70.61
84592;BME280;74826;50.812;16.038;2024-01-15T01:25:15;94605.50;;;0.28;69.86
84592;BME280;74826;50.812;16.038;2024-01-15T01:27:40;94650.78;;;0.73;69.74
84592;BME280;74826;50.812;16.038;2024-01-15T01:30:06;94651.41;;;0.87;67.96
84592;BME280;74826;50.812;16.038;2024-01-15T01:32:32;94657.47;;;1.00;67.83
84592;BME280;74826;50.812;16.038;2024-01-15T01:34:57;94654.13;;;0.90;67.91
84592;BME280;74826;50.812;16.038;2024-01-15T01:37:23;94646.66;;;0.89;68.16
84592;BME280;74826;50.812;16.038;2024-01-15T01:39:48;94635.19;;;0.90;68.29
84592;BME280;74826;50.812;16.038;2024-01-15T01:42:15;94635.38;;;0.85;68.50
84592;BME280;74826;50.812;16.038;2024-01-15T01:44:41;94620.41;;;0.82;69.07
84592;BME280;74826;50.812;16.038;2024-01-15T01:47:07;94618.13;;;0.89;68.79
84592;BME280;74826;50.812;16.038;2024-01-15T01:49:33;94591.44;;;0.80;68.30
84592;BME280;74826;50.812;16.038;2024-01-15T01:52:01;94610.19;;;0.85;68.36
84592;BME280;74826;50.812;16.038;2024-01-15T01:54:29;94600.59;;;0.69;69.05
84592;BME280;74826;50.812;16.038;2024-01-15T01:56:56;94594.03;;;0.63;69.17
84592;BME280;74826;50.812;16.038;2024-01-15T01:59:22;94609.59;;;0.80;68.51
84592;BME280;74826;50.812;16.038;2024-01-15T02:01:48;94609.13;;;0.61;69.02
84592;BME280;74826;50.812;16.038;2024-01-15T02:04:15;94575.59;;;0.56;68.90
84592;BME280;74826;50.812;16.038;2024-01-15T02:06:41;94599.41;;;0.41;69.99
84592;BME280;74826;50.812;16.038;2024-01-15T02:09:07;94602.75;;;0.50;70.20
84592;BME280;74826;50.812;16.038;2024-01-15T02:11:33;94590.25;;;0.52;69.71
84592;BME280;74826;50.812;16.038;2024-01-15T02:13:59;94586.09;;;0.68;69.34
84592;BME280;74826;50.812;16.038;2024-01-15T02:16:24;94591.13;;;0.73;69.10
84592;BME280;74826;50.812;16.038;2024-01-15T02:18:50;94591.53;;;0.92;68.59
84592;BME280;74826;50.812;16.038;2024-01-15T02:21:15;94556.31;;;0.74;68.11
84592;BME280;74826;50.812;16.038;2024-01-15T02:23:40;94570.16;;;0.86;67.66
84592;BME280;74826;50.812;16.038;2024-01-15T02:26:06;94574.91;;;0.93;67.67
84592;BME280;74826;50.812;16.038;2024-01-15T02:28:33;94584.06;;;0.82;67.92
84592;BME280;74826;50.812;16.038;2024-01-15T02:30:58;94557.25;;;0.78;67.77
84592;BME280;74826;50.812;16.038;2024-01-15T02:33:24;94560.63;;;0.70;68.23
84592;BME280;74826;50.812;16.038;2024-01-15T02:35:49;94575.16;;;1.00;67.83
84592;BME280;74826;50.812;16.038;2024-01-15T02:38:17;94575.50;;;0.90;67.54
84592;BME280;74826;50.812;16.038;2024-01-15T02:40:44;94569.13;;;0.79;67.76
84592;BME280;74826;50.812;16.038;2024-01-15T02:43:10;94563.31;;;0.82;67.02
84592;BME280;74826;50.812;16.038;2024-01-15T02:45:35;94537.34;;;0.82;67.17
84592;BME280;74826;50.812;16.038;2024-01-15T02:48:01;94543.81;;;0.76;67.64
84592;BME280;74826;50.812;16.038;2024-01-15T02:50:26;94547.13;;;0.85;67.41
84592;BME280;74826;50.812;16.038;2024-01-15T02:52:52;94547.53;;;1.04;67.02
84592;BME280;74826;50.812;16.038;2024-01-15T02:55:17;94545.38;;;1.06;66.78
84592;BME280;74826;50.812;16.038;2024-01-15T02:57:43;94507.50;;;0.59;67.82
84592;BME280;74826;50.812;16.038;2024-01-15T03:00:09;94529.28;;;0.83;67.60
84592;BME280;74826;50.812;16.038;2024-01-15T03:02:38;94539.34;;;0.76;67.19
84592;BME280;74826;50.812;16.038;2024-01-15T03:05:06;94528.13;;;0.64;66.52
84592;BME280;74826;50.812;16.038;2024-01-15T03:07:31;94519.25;;;0.65;66.54
84592;BME280;74826;50.812;16.038;2024-01-15T03:09:57;94507.47;;;0.76;65.82
84592;BME280;74826;50.812;16.038;2024-01-15T03:12:22;94514.78;;;0.82;65.32
84592;BME280;74826;50.812;16.038;2024-01-15T03:14:48;94520.06;;;0.95;63.89
84592;BME280;74826;50.812;16.038;2024-01-15T03:17:13;94512.03;;;0.79;62.16
84592;BME280;74826;50.812;16.038;2024-01-15T03:19:38;94507.44;;;0.84;63.18
84592;BME280;74826;50.812;16.038;2024-01-15T03:22:04;94514.81;;;0.74;64.50
84592;BME280;74826;50.812;16.038;2024-01-15T03:24:30;94531.25;;;0.86;63.25
84592;BME280;74826;50.812;16.038;2024-01-15T03:26:56;94522.34;;;0.96;62.92
84592;BME280;74826;50.812;16.038;2024-01-15T03:29:21;94546.50;;;0.88;60.79
84592;BME280;74826;50.812;16.038;2024-01-15T03:31:47;94529.16;;;0.80;60.71
84592;BME280;74826;50.812;16.038;2024-01-15T03:34:12;94534.88;;;0.94;60.93
84592;BME280;74826;50.812;16.038;2024-01-15T03:36:38;94547.97;;;1.06;60.87
84592;BME280;74826;50.812;16.038;2024-01-15T03:39:03;94554.38;;;1.09;60.95
84592;BME280;74826;50.812;16.038;2024-01-15T03:41:28;94554.97;;;1.14;60.55
84592;BME280;74826;50.812;16.038;2024-01-15T03:43:54;94559.63;;;1.29;61.03
84592;BME280;74826;50.812;16.038;2024-01-15T03:46:19;94551.22;;;1.32;59.96
84592;BME280;74826;50.812;16.038;2024-01-15T03:48:44;94559.91;;;1.36;60.25
84592;BME280;74826;50.812;16.038;2024-01-15T03:51:10;94556.78;;;1.22;60.77
84592;BME280;74826;50.812;16.038;2024-01-15T03:53:36;94560.09;;;1.31;61.10
84592;BME280;74826;50.812;16.038;2024-01-15T03:56:01;94549.81;;;1.35;61.31
84592;BME280;74826;50.812;16.038;2024-01-15T03:58:26;94536.25;;;1.29;61.18
84592;BME280;74826;50.812;16.038;2024-01-15T04:00:52;94561.75;;;1.36;60.85
84592;BME280;74826;50.812;16.038;2024-01-15T04:03:17;94542.63;;;1.40;61.34
84592;BME280;74826;50.812;16.038;2024-01-15T04:05:42;94530.81;;;1.22;62.27
84592;BME280;74826;50.812;16.038;2024-01-15T04:08:08;94509.75;;;1.15;62.21
84592;BME280;74826;50.812;16.038;2024-01-15T04:10:33;94490.81;;;0.85;63.42
84592;BME280;74826;50.812;16.038;2024-01-15T04:12:59;94497.75;;;1.02;62.93
84592;BME280;74826;50.812;16.038;2024-01-15T04:15:25;94521.03;;;1.19;62.69
84592;BME280;74826;50.812;16.038;2024-01-15T04:17:51;94530.69;;;1.19;61.67
84592;BME280;74826;50.812;16.038;2024-01-15T04:20:17;94515.38;;;1.17;61.34
84592;BME280;74826;50.812;16.038;2024-01-15T04:22:43;94522.78;;;1.07;61.88
84592;BME280;74826;50.812;16.038;2024-01-15T04:25:09;94528.19;;;0.93;65.11
84592;BME280;74826;50.812;16.038;2024-01-15T04:27:34;94522.72;;;0.77;66.71
84592;BME280;74826;50.812;16.038;2024-01-15T04:30:00;94520.03;;;0.57;68.45
84592;BME280;74826;50.812;16.038;2024-01-15T04:32:25;94507.84;;;0.49;69.46
84592;BME280;74826;50.812;16.038;2024-01-15T04:34:50;94503.31;;;0.29;70.93
84592;BME280;74826;50.812;16.038;2024-01-15T04:37:16;94538.38;;;0.18;71.96
84592;BME280;74826;50.812;16.038;2024-01-15T04:39:41;94512.78;;;0.25;71.47
84592;BME280;74826;50.812;16.038;2024-01-15T04:42:06;94513.06;;;0.32;71.04
84592;BME280;74826;50.812;16.038;2024-01-15T04:44:32;94506.38;;;0.31;71.10
84592;BME280;74826;50.812;16.038;2024-01-15T04:46:57;94494.91;;;0.32;70.08
84592;BME280;74826;50.812;16.038;2024-01-15T04:49:22;94500.69;;;0.37;69.97
84592;BME280;74826;50.812;16.038;2024-01-15T04:51:48;94494.78;;;0.37;69.37
84592;BME280;74826;50.812;16.038;2024-01-15T04:54:13;94510.09;;;0.59;67.71
84592;BME280;74826;50.812;16.038;2024-01-15T04:56:43;94495.03;;;0.44;67.70
84592;BME280;74826;50.812;16.038;2024-01-15T04:59:08;94507.19;;;0.69;67.89
84592;BME280;74826;50.812;16.038;2024-01-15T05:01:33;94507.63;;;0.71;66.73
84592;BME280;74826;50.812;16.038;2024-01-15T05:03:59;94500.94;;;0.70;66.47
84592;BME280;74826;50.812;16.038;2024-01-15T05:06:24;94492.19;;;0.74;65.91
84592;BME280;74826;50.812;16.038;2024-01-15T05:08:50;94500.41;;;0.85;65.80
84592;BME280;74826;50.812;16.038;2024-01-15T05:11:15;94510.16;;;0.88;67.42
84592;BME280;74826;50.812;16.038;2024-01-15T05:13:41;94489.34;;;0.67;67.88
84592;BME280;74826;50.812;16.038;2024-01-15T05:16:07;94512.31;;;0.86;67.83
84592;BME280;74826;50.812;16.038;2024-01-15T05:18:32;94498.88;;;0.84;66.97
84592;BME280;74826;50.812;16.038;2024-01-15T05:20:57;94494.06;;;0.74;66.62
84592;BME280;74826;50.812;16.038;2024-01-15T05:23:23;94506.38;;;0.85;67.53
84592;BME280;74826;50.812;16.038;2024-01-15T05:25:48;94487.72;;;0.46;68.73
84592;BME280;74826;50.812;16.038;2024-01-15T05:28:14;94520.47;;;0.59;69.27
84592;BME280;74826;50.812;16.038;2024-01-15T05:30:40;94515.94;;;0.56;70.22
84592;BME280;74826;50.812;16.038;2024-01-15T05:33:06;94471.16;;;0.21;70.12
84592;BME280;74826;50.812;16.038;2024-01-15T05:35:33;94496.69;;;0.57;71.05
84592;BME280;74826;50.812;16.038;2024-01-15T05:37:58;94509.97;;;0.64;70.36
84592;BME280;74826;50.812;16.038;2024-01-15T05:40:23;94493.50;;;0.60;70.48
84592;BME280;74826;50.812;16.038;2024-01-15T05:42:49;94515.41;;;0.71;69.64
84592;BME280;74826;50.812;16.038;2024-01-15T05:45:14;94490.56;;;0.61;68.98
84592;BME280;74826;50.812;16.038;2024-01-15T05:47:40;94494.59;;;0.50;69.78
84592;BME280;74826;50.812;16.038;2024-01-15T05:50:05;94501.88;;;0.57;69.09
84592;BME280;74826;50.812;16.038;2024-01-15T05:52:31;94523.97;;;0.80;68.78
84592;BME280;74826;50.812;16.038;2024-01-15T05:54:57;94491.34;;;0.62;67.54
84592;BME280;74826;50.812;16.038;2024-01-15T05:57:22;94502.19;;;0.64;67.17
84592;BME280;74826;50.812;16.038;2024-01-15T05:59:48;94515.72;;;0.78;67.70
84592;BME280;74826;50.812;16.038;2024-01-15T06:02:13;94530.06;;;0.67;69.98
84592;BME280;74826;50.812;16.038;2024-01-15T06:04:39;94517.66;;;0.35;70.57
84592;BME280;74826;50.812;16.038;2024-01-15T06:07:04;94516.69;;;0.48;70.37
84592;BME280;74826;50.812;16.038;2024-01-15T06:09:30;94514.38;;;0.55;70.27
84592;BME280;74826;50.812;16.038;2024-01-15T06:11:56;94517.34;;;0.28;72.09
84592;BME280;74826;50.812;16.038;2024-01-15T06:14:22;94533.22;;;0.35;71.84
84592;BME280;74826;50.812;16.038;2024-01-15T06:16:47;94537.00;;;0.46;71.01
84592;BME280;74826;50.812;16.038;2024-01-15T06:19:12;94529.53;;;0.36;71.12
84592;BME280;74826;50.812;16.038;2024-01-15T06:21:38;94543.25;;;0.45;70.39
84592;BME280;74826;50.812;16.038;2024-01-15T06:24:03;94532.25;;;0.48;69.68
84592;BME280;74826;50.812;16.038;2024-01-15T06:26:29;94540.03;;;0.48;68.70
84592;BME280;74826;50.812;16.038;2024-01-15T06:28:54;94532.25;;;0.48;68.62
84592;BME280;74826;50.812;16.038;2024-01-15T06:31:20;94529.06;;;0.34;68.44
84592;BME280;74826;50.812;16.038;2024-01-15T06:33:45;94534.69;;;0.53;68.14
84592;BME280;74826;50.812;16.038;2024-01-15T06:36:13;94533.50;;;0.42;67.73
84592;BME280;74826;50.812;16.038;2024-01-15T06:38:38;94546.47;;;0.42;67.58
84592;BME280;74826;50.812;16.038;2024-01-15T06:41:04;94517.47;;;0.40;67.02
84592;BME280;74826;50.812;16.038;2024-01-15T06:43:29;94534.84;;;0.56;66.61
84592;BME280;74826;50.812;16.038;2024-01-15T06:45:55;94548.84;;;0.72;66.20
84592;BME280;74826;50.812;16.038;2024-01-15T06:48:20;94537.41;;;0.65;65.61
84592;BME280;74826;50.812;16.038;2024-01-15T06:50:46;94549.63;;;0.64;66.23
84592;BME280;74826;50.812;16.038;2024-01-15T06:53:11;94550.06;;;0.66;65.69
84592;BME280;74826;50.812;16.038;2024-01-15T06:55:38;94542.63;;;0.48;66.70
84592;BME280;74826;50.812;16.038;2024-01-15T06:58:03;94542.94;;;0.38;66.18
84592;BME280;74826;50.812;16.038;2024-01-15T07:00:29;94530.31;;;0.19;65.78
84592;BME280;74826;50.812;16.038;2024-01-15T07:02:54;94519.78;;;0.33;65.71
84592;BME280;74826;50.812;16.038;2024-01-15T07:05:23;94525.72;;;0.50;65.77
84592;BME280;74826;50.812;16.038;2024-01-15T07:07:49;94527.72;;;0.28;66.00
84592;BME280;74826;50.812;16.038;2024-01-15T07:10:14;94526.66;;;0.20;65.34
84592;BME280;74826;50.812;16.038;2024-01-15T07:12:42;94507.94;;;-0.03;66.52
84592;BME280;74826;50.812;16.038;2024-01-15T07:15:08;94534.13;;;0.22;66.09
84592;BME280;74826;50.812;16.038;2024-01-15T07:17:35;94545.13;;;0.19;65.64
84592;BME280;74826;50.812;16.038;2024-01-15T07:20:00;94552.88;;;0.19;65.79
84592;BME280;74826;50.812;16.038;2024-01-15T07:22:26;94559.91;;;0.10;65.39
84592;BME280;74826;50.812;16.038;2024-01-15T07:24:51;94554.56;;;0.15;65.28
84592;BME280;74826;50.812;16.038;2024-01-15T07:27:16;94548.47;;;0.11;64.71
84592;BME280;74826;50.812;16.038;2024-01-15T07:29:42;94535.38;;;0.16;63.39
84592;BME280;74826;50.812;16.038;2024-01-15T07:32:08;94541.44;;;0.20;62.47
84592;BME280;74826;50.812;16.038;2024-01-15T07:34:34;94551.22;;;0.23;62.36
84592;BME280;74826;50.812;16.038;2024-01-15T07:36:59;94543.13;;;0.24;62.28
84592;BME280;74826;50.812;16.038;2024-01-15T07:39:25;94555.00;;;0.34;62.18
84592;BME280;74826;50.812;16.038;2024-01-15T07:41:51;94534.25;;;0.34;61.77
84592;BME280;74826;50.812;16.038;2024-01-15T07:44:16;94547.53;;;0.41;61.77
84592;BME280;74826;50.812;16.038;2024-01-15T07:46:46;94541.28;;;0.33;61.67
84592;BME280;74826;50.812;16.038;2024-01-15T07:49:11;94548.91;;;0.30;61.17
84592;BME280;74826;50.812;16.038;2024-01-15T07:51:37;94539.44;;;0.34;61.27
84592;BME280;74826;50.812;16.038;2024-01-15T07:54:02;94548.75;;;0.35;61.09
84592;BME280;74826;50.812;16.038;2024-01-15T07:56:28;94545.88;;;0.19;61.80
84592;BME280;74826;50.812;16.038;2024-01-15T07:58:53;94554.09;;;0.30;61.17
84592;BME280;74826;50.812;16.038;2024-01-15T08:01:19;94557.56;;;0.51;60.71
84592;BME280;74826;50.812;16.038;2024-01-15T08:03:44;94559.56;;;0.54;60.58
84592;BME280;74826;50.812;16.038;2024-01-15T08:06:10;94567.94;;;0.51;61.14
84592;BME280;74826;50.812;16.038;2024-01-15T08:08:36;94562.94;;;0.54;61.62
84592;BME280;74826;50.812;16.038;2024-01-15T08:11:02;94537.44;;;0.48;60.50
84592;BME280;74826;50.812;16.038;2024-01-15T08:13:27;94551.47;;;0.64;60.64
84592;BME280;74826;50.812;16.038;2024-01-15T08:15:53;94525.22;;;0.57;60.51
84592;BME280;74826;50.812;16.038;2024-01-15T08:18:18;94525.84;;;0.45;60.76
84592;BME280;74826;50.812;16.038;2024-01-15T08:20:44;94563.53;;;0.60;59.93
84592;BME280;74826;50.812;16.038;2024-01-15T08:23:09;94515.34;;;0.50;60.06
84592;BME280;74826;50.812;16.038;2024-01-15T08:25:34;94544.88;;;0.75;59.86
84592;BME280;74826;50.812;16.038;2024-01-15T08:28:00;94546.38;;;0.84;59.54
84592;BME280;74826;50.812;16.038;2024-01-15T08:30:25;94554.47;;;0.83;58.63
84592;BME280;74826;50.812;16.038;2024-01-15T08:32:53;94545.47;;;0.80;58.87
84592;BME280;74826;50.812;16.038;2024-01-15T08:35:19;94520.00;;;0.74;58.38
84592;BME280;74826;50.812;16.038;2024-01-15T08:37:50;94541.28;;;0.97;58.49
84592;BME280;74826;50.812;16.038;2024-01-15T08:40:16;94541.94;;;0.85;58.26
